Time;durP1;ratioP1;P1;durP2;ratioP2;P2;SDS_P1;SDS_P2;PMS_P1;PMS_P2;Temp;Humidity;BMP_temperature;BMP_pressure;BME280_temperature;BME280_humidity;BME280_pressure;Samples;Min_cycle;Max_cycle;Signal;HPM_P1;HPM_P2
2023/06/01 00:01:04;;;;;;;2.03;1.35;;;;;;;21.54;52.09;102268.75;5009489;28;20515;-53
2023/06/01 00:03:30;;;;;;;2.75;1.65;;;;;;;21.52;52.52;102268.88;5006467;28;20396;-53
2023/06/01 00:05:58;;;;;;;1.77;1.45;;;;;;;21.53;52.03;102272.44;5007290;28;20069;-53
2023/06/01 00:08:23;;;;;;;1.52;1.42;;;;;;;21.52;52.07;102265.31;5006707;28;20036;-53
2023/06/01 00:10:49;;;;;;;1.38;1.13;;;;;;;21.52;52.28;102276.16;5007293;28;20025;-53
2023/06/01 00:13:15;;;;;;;1.80;1.58;;;;;;;21.51;52.03;102272.56;5006868;28;20041;-54
2023/06/01 00:15:41;;;;;;;1.65;1.52;;;;;;;21.51;52.07;102266.31;5006115;28;20037;-53
2023/06/01 00:18:08;;;;;;;2.35;1.60;;;;;;;21.51;52.13;102260.88;5001012;28;20385;-53
2023/06/01 00:20:34;;;;;;;2.10;1.83;;;;;;;21.50;52.01;102259.19;5009753;28;20104;-53
2023/06/01 00:22:59;;;;;;;1.90;1.73;;;;;;;21.50;52.38;102264.59;5012467;28;20454;-53
2023/06/01 00:25:25;;;;;;;1.65;1.40;;;;;;;21.48;52.04;102260.16;5007183;28;20500;-53
2023/06/01 00:27:50;;;;;;;1.27;1.20;;;;;;;21.48;52.31;102262.88;5007541;28;20040;-54
2023/06/01 00:30:16;;;;;;;2.13;1.92;;;;;;;21.50;52.41;102264.59;5006712;28;20034;-53
2023/06/01 00:32:41;;;;;;;2.38;1.90;;;;;;;21.48;52.25;102273.72;5006135;28;20403;-53
2023/06/01 00:35:07;;;;;;;4.25;1.60;;;;;;;21.47;52.17;102271.97;5007236;28;20433;-54
2023/06/01 00:37:32;;;;;;;1.98;1.30;;;;;;;21.47;51.92;102263.84;5006603;28;20048;-53
2023/06/01 00:39:58;;;;;;;1.52;1.42;;;;;;;21.47;52.03;102266.56;5006790;28;20430;-54
2023/06/01 00:42:23;;;;;;;2.53;2.20;;;;;;;21.48;52.09;102270.16;5005921;28;20070;-53
2023/06/01 00:44:49;;;;;;;2.50;1.52;;;;;;;21.47;51.87;102269.28;5006566;28;20468;-53
2023/06/01 00:47:14;;;;;;;1.60;1.50;;;;;;;21.47;52.24;102261.16;5009869;28;20030;-53
2023/06/01 00:49:40;;;;;;;2.80;2.25;;;;;;;21.46;52.25;102255.88;5013441;28;20028;-53
2023/06/01 00:52:06;;;;;;;2.53;1.70;;;;;;;21.47;52.22;102258.44;5007240;28;20069;-53
2023/06/01 00:54:31;;;;;;;2.05;1.73;;;;;;;21.45;51.88;102257.72;5006481;28;20388;-53
2023/06/01 00:56:57;;;;;;;2.03;1.60;;;;;;;21.46;52.13;102259.44;5009010;28;20040;-53
2023/06/01 00:59:22;;;;;;;1.70;1.45;;;;;;;21.45;51.81;102260.41;5005481;28;20056;-53
2023/06/01 01:01:47;;;;;;;2.20;1.83;;;;;;;21.46;51.68;102264.00;5006311;28;20044;-53
2023/06/01 01:04:14;;;;;;;2.15;1.60;;;;;;;21.46;51.62;102258.59;5007010;28;20487;-54
2023/06/01 01:07:00;;;;;;;1.85;1.60;;;;;;;21.47;51.72;102265.72;5006480;28;20034;-53
2023/06/01 01:09:49;;;;;;;3.70;1.88;;;;;;;21.47;52.22;102271.13;5007099;28;20048;-53
2023/06/01 01:12:45;;;;;;;1.65;1.55;;;;;;;21.45;52.21;102273.13;5006914;28;20033;-53
2023/06/01 01:15:55;;;;;;;1.70;1.60;;;;;;;21.48;51.93;102279.13;5009727;28;20369;-53
2023/06/01 01:18:46;;;;;;;2.17;1.90;;;;;;;21.47;51.93;102280.13;5007310;28;20103;-53
2023/06/01 01:21:30;;;;;;;2.08;1.90;;;;;;;21.44;51.61;102277.69;5019985;28;20481;-53
2023/06/01 01:24:14;;;;;;;2.45;1.73;;;;;;;21.46;51.67;102272.13;5021522;28;20038;-53
2023/06/01 01:26:48;;;;;;;2.17;1.75;;;;;;;21.44;51.86;102280.41;5012359;28;20504;-53
2023/06/01 01:29:15;;;;;;;1.85;1.73;;;;;;;21.43;52.00;102275.94;5009904;28;20025;-53
2023/06/01 01:31:41;;;;;;;3.08;1.98;;;;;;;21.41;52.04;102277.91;5009311;28;20395;-54
2023/06/01 01:34:09;;;;;;;2.17;2.08;;;;;;;21.41;51.96;102275.22;5008729;28;20033;-53
2023/06/01 01:36:35;;;;;;;2.30;2.10;;;;;;;21.41;51.48;102277.06;5009442;28;20033;-53
2023/06/01 01:39:02;;;;;;;2.42;1.77;;;;;;;21.40;51.66;102278.94;5007334;28;20046;-53
2023/06/01 01:41:27;;;;;;;2.05;1.90;;;;;;;21.40;52.04;102281.63;5006333;28;20034;-53
2023/06/01 01:43:53;;;;;;;1.90;1.80;;;;;;;21.39;51.86;102285.31;5014876;28;20380;-53
2023/06/01 01:46:25;;;;;;;3.30;2.00;;;;;;;21.38;51.61;102278.19;5009944;28;20476;-54
2023/06/01 01:49:12;;;;;;;2.08;1.88;;;;;;;21.39;51.83;102279.91;5009112;28;20050;-53
2023/06/01 01:51:49;;;;;;;2.38;1.70;;;;;;;21.38;51.85;102278.19;5008472;28;20583;-53
2023/06/01 01:54:15;;;;;;;3.20;2.33;;;;;;;21.37;51.78;102281.88;5009546;28;20424;-53
2023/06/01 01:56:42;;;;;;;2.97;2.13;;;;;;;21.37;51.97;102284.59;5008754;28;20121;-53
2023/06/01 01:59:08;;;;;;;3.05;2.03;;;;;;;21.36;51.78;102274.78;5010078;28;20068;-54
2023/06/01 02:01:35;;;;;;;3.42;2.20;;;;;;;21.35;51.82;102275.75;5008944;28;20034;-53
2023/06/01 02:04:07;;;;;;;2.00;1.80;;;;;;;21.35;51.85;102278.47;5008466;28;20065;-53
2023/06/01 02:06:32;;;;;;;3.72;1.95;;;;;;;21.35;51.77;102283.88;5009386;28;20025;-53
2023/06/01 02:08:57;;;;;;;3.83;2.25;;;;;;;21.35;51.76;102277.59;5008735;28;20073;-54
2023/06/01 02:11:23;;;;;;;1.85;1.73;;;;;;;21.34;51.83;102274.00;5011137;28;20029;-53
2023/06/01 02:13:48;;;;;;;2.30;2.10;;;;;;;21.34;51.71;102279.44;5009550;28;20384;-54
2023/06/01 02:16:15;;;;;;;2.35;2.15;;;;;;;21.33;51.50;102285.88;5005562;28;20161;-53
2023/06/01 02:18:45;;;;;;;2.33;1.88;;;;;;;21.34;51.21;102276.72;5008971;28;20537;-53
2023/06/01 02:21:12;;;;;;;2.35;2.15;;;;;;;21.33;51.68;102280.44;5010493;28;20392;-54
2023/06/01 02:23:39;;;;;;;2.47;2.10;;;;;;;21.32;51.31;102278.72;5009882;28;20045;-53
2023/06/01 02:26:05;;;;;;;2.58;2.08;;;;;;;21.32;51.19;102273.28;5010769;28;20045;-53
2023/06/01 02:28:31;;;;;;;3.33;2.05;;;;;;;21.32;51.38;102275.16;5010153;28;20030;-54
2023/06/01 02:30:56;;;;;;;3.40;2.35;;;;;;;21.32;51.28;102281.41;5008833;28;20496;-54
2023/06/01 02:33:24;;;;;;;3.05;2.75;;;;;;;21.31;51.52;102270.75;5007988;28;20045;-53
2023/06/01 02:35:50;;;;;;;2.20;2.00;;;;;;;21.30;51.64;102275.28;5007333;28;20088;-53
2023/06/01 02:38:15;;;;;;;2.63;1.90;;;;;;;21.29;51.59;102263.59;5007947;28;20042;-53
2023/06/01 02:40:41;;;;;;;2.53;1.95;;;;;;;21.30;51.16;102272.56;5008738;28;20461;-53
2023/06/01 02:43:06;;;;;;;2.50;2.30;;;;;;;21.29;51.60;102270.88;5008507;28;20030;-54
2023/06/01 02:45:31;;;;;;;2.30;2.10;;;;;;;21.29;51.60;102270.88;5007972;28;20070;-53
2023/06/01 02:47:57;;;;;;;1.70;1.60;;;;;;;21.29;51.42;102268.16;5011425;28;20069;-53
2023/06/01 02:50:22;;;;;;;2.35;1.80;;;;;;;21.28;51.22;102266.44;5006971;28;20412;-53
2023/06/01 02:52:48;;;;;;;2.28;2.08;;;;;;;21.27;51.50;102264.72;5008436;28;20057;-53
2023/06/01 02:55:13;;;;;;;2.35;2.15;;;;;;;21.27;51.23;102275.56;5008211;28;20073;-53
2023/06/01 02:57:39;;;;;;;2.03;1.83;;;;;;;21.26;51.37;102268.41;5007312;28;20061;-54
2023/06/01 03:00:15;;;;;;;2.17;1.92;;;;;;;21.25;51.54;102277.56;5010154;28;20034;-54
2023/06/01 03:02:41;;;;;;;2.50;2.00;;;;;;;21.26;51.21;102285.53;5006503;28;20127;-53
2023/06/01 03:05:07;;;;;;;3.20;2.17;;;;;;;21.25;51.57;102280.25;5008480;28;20109;-53
2023/06/01 03:07:33;;;;;;;1.98;1.73;;;;;;;21.25;50.92;102277.56;5011036;28;20029;-53
2023/06/01 03:09:58;;;;;;;2.58;1.90;;;;;;;21.25;51.51;102278.41;5008804;28;20030;-54
2023/06/01 03:12:23;;;;;;;1.85;1.75;;;;;;;21.25;51.51;102277.56;5007491;28;20034;-53
2023/06/01 03:14:49;;;;;;;2.05;1.95;;;;;;;21.25;51.15;102275.69;5007215;28;20034;-53
2023/06/01 03:17:14;;;;;;;3.03;1.90;;;;;;;21.23;51.59;102274.97;5008015;28;20034;-53
2023/06/01 03:19:40;;;;;;;2.40;2.20;;;;;;;21.23;51.39;102268.69;5007574;28;20042;-53
2023/06/01 03:22:06;;;;;;;2.40;2.03;;;;;;;21.23;51.28;102277.69;5010382;28;20141;-53
2023/06/01 03:24:32;;;;;;;2.53;1.90;;;;;;;21.24;51.00;102281.25;5007853;28;20027;-53
2023/06/01 03:26:57;;;;;;;3.42;2.03;;;;;;;21.21;51.38;102278.78;5013761;28;20037;-53
2023/06/01 03:29:23;;;;;;;2.13;1.83;;;;;;;21.22;51.01;102266.97;5011719;28;20531;-54
2023/06/01 03:31:49;;;;;;;2.25;1.88;;;;;;;21.21;50.89;102266.13;5010833;28;20030;-53
2023/06/01 03:34:14;;;;;;;2.40;2.10;;;;;;;21.21;50.72;102276.97;5008320;28;20038;-53
2023/06/01 03:36:40;;;;;;;2.22;1.98;;;;;;;21.20;50.84;102272.50;5006623;28;20061;-53
2023/06/01 03:39:08;;;;;;;2.20;1.98;;;;;;;21.21;51.23;102270.66;5006060;28;20086;-53
2023/06/01 03:41:34;;;;;;;2.20;2.00;;;;;;;21.20;51.21;102268.97;5007757;28;20035;-54
2023/06/01 03:44:00;;;;;;;2.47;2.28;;;;;;;21.20;51.04;102271.66;5009101;28;20384;-53
2023/06/01 03:46:25;;;;;;;3.92;2.13;;;;;;;21.20;50.98;102274.38;5008261;28;20034;-53
2023/06/01 03:48:51;;;;;;;1.92;1.73;;;;;;;21.19;50.66;102272.63;5007106;28;20022;-54
2023/06/01 03:51:17;;;;;;;2.47;2.15;;;;;;;21.19;50.86;102278.06;5008350;28;20073;-53
2023/06/01 03:53:42;;;;;;;2.30;2.10;;;;;;;21.19;50.58;102283.47;5007128;28;20046;-53
2023/06/01 03:56:07;;;;;;;2.20;2.00;;;;;;;21.19;50.86;102286.19;5006702;28;20026;-53
2023/06/01 03:58:33;;;;;;;1.73;1.48;;;;;;;21.18;50.82;102287.19;5008725;28;20038;-53
2023/06/01 04:01:00;;;;;;;1.98;1.85;;;;;;;21.18;50.73;102281.78;5007902;28;20030;-53
2023/06/01 04:03:26;;;;;;;2.70;1.92;;;;;;;21.18;50.76;102273.66;5008260;28;20405;-54
2023/06/01 04:05:58;;;;;;;1.88;1.77;;;;;;;21.17;50.86;102285.47;5007870;28;20034;-53
2023/06/01 04:08:24;;;;;;;1.77;1.60;;;;;;;21.16;50.94;102287.31;5010087;28;20041;-54
2023/06/01 04:10:50;;;;;;;2.05;1.80;;;;;;;21.16;50.81;102289.19;5007094;28;20483;-53
2023/06/01 04:13:15;;;;;;;1.98;1.88;;;;;;;21.16;50.89;102287.31;5006554;28;20117;-54
2023/06/01 04:15:41;;;;;;;2.20;1.58;;;;;;;21.16;50.92;102283.75;5007505;28;20034;-53
2023/06/01 04:18:06;;;;;;;1.98;1.80;;;;;;;21.15;50.67;102282.91;5006852;28;20045;-53
2023/06/01 04:20:32;;;;;;;2.08;1.88;;;;;;;21.14;50.97;102278.47;5006673;28;20041;-53
2023/06/01 04:22:58;;;;;;;1.83;1.73;;;;;;;21.15;50.53;102273.91;5009430;28;20042;-53
2023/06/01 04:25:24;;;;;;;1.90;1.75;;;;;;;21.14;50.55;102280.34;5009109;28;20026;-53
2023/06/01 04:27:54;;;;;;;1.77;1.67;;;;;;;21.15;50.81;102276.63;5010734;28;20026;-53
2023/06/01 04:30:20;;;;;;;1.92;1.60;;;;;;;21.15;50.70;102284.75;5006219;28;20472;-53
2023/06/01 04:32:47;;;;;;;1.70;1.60;;;;;;;21.13;50.53;102289.44;5006022;28;20041;-53
2023/06/01 04:35:13;;;;;;;1.65;1.55;;;;;;;21.13;50.90;102293.00;5007082;28;20034;-53
2023/06/01 04:37:40;;;;;;;2.17;1.80;;;;;;;21.13;50.60;102284.00;5006209;28;20022;-54
2023/06/01 04:40:09;;;;;;;1.83;1.58;;;;;;;21.13;50.40;102294.84;5000469;28;20051;-53
2023/06/01 04:42:42;;;;;;;2.00;1.80;;;;;;;21.12;50.58;102296.72;5001697;28;20038;-53
2023/06/01 04:45:10;;;;;;;1.85;1.58;;;;;;;21.13;50.56;102294.84;5006527;28;20030;-53
2023/06/01 04:47:39;;;;;;;1.60;1.50;;;;;;;21.12;50.76;102304.84;5007220;28;20037;-54
2023/06/01 04:50:09;;;;;;;1.60;1.50;;;;;;;21.12;50.53;102298.56;5009494;28;20033;-54
2023/06/01 04:52:40;;;;;;;2.17;1.67;;;;;;;21.12;50.79;102304.84;5010529;28;20029;-53
2023/06/01 04:55:06;;;;;;;3.67;1.70;;;;;;;21.12;50.50;102304.84;5011021;28;20029;-53
2023/06/01 04:57:35;;;;;;;3.25;1.92;;;;;;;21.11;50.53;102304.97;5010005;28;20164;-53
2023/06/01 05:00:01;;;;;;;1.80;1.70;;;;;;;21.11;50.39;102302.25;5013117;28;20033;-53
2023/06/01 05:02:27;;;;;;;1.83;1.73;;;;;;;21.10;50.93;102301.41;5010381;28;20037;-53
2023/06/01 05:04:53;;;;;;;2.53;1.67;;;;;;;21.11;50.72;102288.72;5012520;28;20083;-53
2023/06/01 05:07:18;;;;;;;1.65;1.55;;;;;;;21.11;50.68;102291.41;5010510;28;20422;-53
2023/06/01 05:09:44;;;;;;;1.75;1.65;;;;;;;21.09;50.77;102289.72;5009731;28;20116;-53
2023/06/01 05:12:09;;;;;;;1.80;1.70;;;;;;;21.11;50.57;102291.41;5003469;28;20140;-53
2023/06/01 05:14:35;;;;;;;1.60;1.50;;;;;;;21.10;50.65;102290.56;5010534;28;20049;-54
2023/06/01 05:17:00;;;;;;;2.50;1.80;;;;;;;21.11;50.41;102283.28;5009265;28;20543;-53
2023/06/01 05:19:25;;;;;;;2.40;1.95;;;;;;;21.10;50.61;102287.84;5009954;28;20041;-53
2023/06/01 05:21:51;;;;;;;1.60;1.50;;;;;;;21.09;50.70;102287.00;5010725;28;20038;-53
2023/06/01 05:24:16;;;;;;;2.67;1.67;;;;;;;21.09;50.58;102287.00;5009735;28;20041;-53
2023/06/01 05:26:41;;;;;;;2.05;1.77;;;;;;;21.09;50.21;102284.31;5012960;28;20454;-54
2023/06/01 05:29:07;;;;;;;1.50;1.40;;;;;;;21.09;50.68;102284.31;5009573;28;20041;-53
2023/06/01 05:31:32;;;;;;;1.90;1.70;;;;;;;21.09;50.68;102287.00;5009818;28;20041;-53
2023/06/01 05:33:57;;;;;;;1.80;1.70;;;;;;;21.09;50.44;102288.84;5009167;28;20026;-53
2023/06/01 05:36:23;;;;;;;2.10;1.70;;;;;;;21.09;50.15;102289.72;5008429;28;20029;-54
2023/06/01 05:38:48;;;;;;;2.33;2.10;;;;;;;21.11;50.28;102294.13;5008051;28;20140;-54
2023/06/01 05:41:14;;;;;;;2.20;2.00;;;;;;;21.09;50.36;102295.13;5008801;28;20492;-53
2023/06/01 05:43:39;;;;;;;2.90;1.65;;;;;;;21.09;50.31;102288.84;5009766;28;20052;-53
2023/06/01 05:46:06;;;;;;;1.80;1.40;;;;;;;21.08;50.24;102285.28;5009264;28;20080;-53
2023/06/01 05:48:31;;;;;;;2.08;1.70;;;;;;;21.09;50.34;102300.53;5009615;28;20034;-53
2023/06/01 05:50:57;;;;;;;2.55;1.60;;;;;;;21.09;50.85;102278.88;5009098;28;20048;-53
2023/06/01 05:53:24;;;;;;;1.80;1.63;;;;;;;21.11;50.53;102286.00;5008356;28;20073;-54
2023/06/01 05:55:51;;;;;;;2.55;2.00;;;;;;;21.09;50.62;102299.66;5009354;28;20549;-53
2023/06/01 05:58:17;;;;;;;1.88;1.60;;;;;;;21.10;50.29;102290.56;5011348;28;20034;-54
2023/06/01 06:00:42;;;;;;;2.40;1.63;;;;;;;21.09;50.18;102300.53;5012221;28;20064;-53
2023/06/01 06:03:07;;;;;;;1.80;1.70;;;;;;;21.09;50.27;102289.72;5009076;28;20096;-53
2023/06/01 06:05:33;;;;;;;2.35;1.60;;;;;;;21.09;50.65;102303.25;5008400;28;20041;-53
2023/06/01 06:07:58;;;;;;;2.13;1.92;;;;;;;21.11;50.46;102291.41;5008852;28;20062;-53
2023/06/01 06:10:23;;;;;;;2.47;1.80;;;;;;;21.09;50.30;102292.44;5008278;28;20038;-53
2023/06/01 06:12:50;;;;;;;1.83;1.58;;;;;;;21.08;50.16;102287.97;5009116;28;20030;-53
2023/06/01 06:15:16;;;;;;;2.00;1.80;;;;;;;21.08;50.24;102290.69;5008761;28;20056;-53
2023/06/01 06:17:42;;;;;;;1.90;1.58;;;;;;;21.09;50.13;102291.53;5007849;28;20468;-53
2023/06/01 06:20:09;;;;;;;2.53;1.50;;;;;;;21.08;50.10;102292.56;5007888;28;20057;-54
2023/06/01 06:22:35;;;;;;;2.60;1.63;;;;;;;21.08;50.22;102301.53;5011049;28;20060;-53
2023/06/01 06:25:01;;;;;;;2.05;1.60;;;;;;;21.09;50.01;102305.09;5010414;28;20539;-53
2023/06/01 06:27:26;;;;;;;2.47;1.90;;;;;;;21.08;50.15;102304.22;5008196;28;20034;-53
2023/06/01 06:29:51;;;;;;;2.30;2.03;;;;;;;21.08;50.06;102304.22;5007927;28;20424;-54
2023/06/01 06:32:19;;;;;;;4.40;1.67;;;;;;;21.08;50.22;102297.97;5008470;28;20469;-53
2023/06/01 06:34:45;;;;;;;3.33;2.00;;;;;;;21.06;50.07;102306.22;5007320;28;20477;-53
2023/06/01 06:37:11;;;;;;;1.50;1.40;;;;;;;21.06;50.55;102300.78;5008777;28;20117;-54
2023/06/01 06:39:37;;;;;;;2.28;1.58;;;;;;;21.07;50.21;102297.09;5007592;28;20085;-53
2023/06/01 06:42:03;;;;;;;2.08;1.77;;;;;;;21.07;50.18;102298.94;5007324;28;20034;-53
2023/06/01 06:44:29;;;;;;;2.50;1.70;;;;;;;21.07;49.95;102298.94;5008323;28;20046;-54
2023/06/01 06:46:55;;;;;;;2.10;2.00;;;;;;;21.07;50.18;102297.09;5007516;28;20041;-53
2023/06/01 06:49:20;;;;;;;1.90;1.70;;;;;;;21.06;50.42;102295.38;5008519;28;20027;-53
2023/06/01 06:51:46;;;;;;;1.92;1.73;;;;;;;21.08;50.32;102300.66;5008802;28;20513;-53
2023/06/01 06:54:12;;;;;;;2.33;1.55;;;;;;;21.07;50.18;102302.50;5012322;28;20040;-54
2023/06/01 06:56:37;;;;;;;1.90;1.65;;;;;;;21.07;50.40;102302.50;5010800;28;20038;-53
2023/06/01 06:59:02;;;;;;;1.88;1.75;;;;;;;21.07;50.23;102297.09;5009744;28;20037;-53
2023/06/01 07:01:28;;;;;;;1.90;1.80;;;;;;;21.08;50.00;102301.53;5008132;28;20058;-53
2023/06/01 07:03:55;;;;;;;2.15;1.60;;;;;;;21.09;50.12;102311.38;5007409;28;20034;-53
2023/06/01 07:06:21;;;;;;;2.55;1.77;;;;;;;21.08;50.35;102306.94;5008097;28;20053;-53
2023/06/01 07:08:46;;;;;;;1.95;1.65;;;;;;;21.09;50.40;102310.50;5007655;28;20061;-53
2023/06/01 07:11:11;;;;;;;1.65;1.50;;;;;;;21.09;50.06;102307.78;5007165;28;20041;-53
2023/06/01 07:13:37;;;;;;;2.00;1.60;;;;;;;21.10;50.02;102304.09;5007700;28;20042;-53
2023/06/01 07:16:04;;;;;;;1.80;1.70;;;;;;;21.08;50.51;102304.22;5008631;28;20480;-53
2023/06/01 07:18:30;;;;;;;2.15;1.70;;;;;;;21.09;50.04;102300.53;5008033;28;20408;-53
2023/06/01 07:20:55;;;;;;;1.70;1.60;;;;;;;21.09;50.04;102295.13;5007160;28;20022;-53
2023/06/01 07:23:21;;;;;;;2.00;1.80;;;;;;;21.10;50.04;102304.09;5004812;28;20030;-53
2023/06/01 07:25:46;;;;;;;2.00;1.80;;;;;;;21.09;50.27;102302.38;5018332;28;20045;-53
2023/06/01 07:28:12;;;;;;;1.80;1.70;;;;;;;21.09;50.41;102307.78;5012498;28;20029;-53
2023/06/01 07:30:38;;;;;;;2.00;1.90;;;;;;;21.09;50.49;102287.00;5011270;28;20038;-53
2023/06/01 07:33:04;;;;;;;2.22;1.77;;;;;;;21.08;50.41;102301.53;5006887;28;20369;-53
2023/06/01 07:35:29;;;;;;;2.45;1.88;;;;;;;21.09;50.13;102299.66;5006654;28;20053;-53
2023/06/01 07:37:55;;;;;;;2.42;1.52;;;;;;;21.09;50.18;102302.38;5007054;28;20517;-54
2023/06/01 07:40:22;;;;;;;1.90;1.80;;;;;;;21.08;50.18;102304.22;5014611;28;20073;-53
2023/06/01 07:42:47;;;;;;;1.77;1.67;;;;;;;21.08;50.42;102300.66;5007284;28;20042;-53
2023/06/01 07:45:13;;;;;;;1.80;1.70;;;;;;;21.09;49.87;102302.38;5007000;28;20080;-53
2023/06/01 07:47:38;;;;;;;3.10;1.75;;;;;;;21.07;50.35;102302.50;5007189;28;20035;-53
2023/06/01 07:50:05;;;;;;;2.22;1.95;;;;;;;21.08;50.01;102306.94;5010278;28;20093;-53
2023/06/01 07:52:31;;;;;;;1.88;1.77;;;;;;;21.07;50.36;102297.09;5010204;28;20037;-54
2023/06/01 07:54:56;;;;;;;1.80;1.70;;;;;;;21.08;50.06;102297.97;5013759;28;20038;-53
2023/06/01 07:57:22;;;;;;;2.15;2.00;;;;;;;21.08;50.57;102301.53;5006725;28;20038;-53
2023/06/01 07:59:47;;;;;;;1.95;1.60;;;;;;;21.08;50.07;102298.81;5013572;28;20091;-54
2023/06/01 08:02:13;;;;;;;2.20;2.00;;;;;;;21.08;49.98;102297.97;5007046;28;20085;-53
2023/06/01 08:04:39;;;;;;;3.08;2.00;;;;;;;21.07;49.99;102297.09;5006116;28;20034;-53
2023/06/01 08:07:07;;;;;;;2.33;2.00;;;;;;;21.08;50.41;102293.41;5006990;28;20040;-53
2023/06/01 08:09:32;;;;;;;3.50;1.90;;;;;;;21.07;50.23;102297.09;5006545;28;20084;-54
2023/06/01 08:11:58;;;;;;;2.15;1.55;;;;;;;21.08;50.43;102300.66;5007324;28;20085;-53
2023/06/01 08:14:23;;;;;;;2.30;1.85;;;;;;;21.08;50.04;102304.22;5006605;28;20484;-53
2023/06/01 08:16:51;;;;;;;1.83;1.70;;;;;;;21.08;49.91;102298.81;5005951;28;20113;-53
2023/06/01 08:19:16;;;;;;;2.25;1.80;;;;;;;21.08;49.99;102300.66;5007064;28;20057;-54
2023/06/01 08:21:42;;;;;;;1.70;1.60;;;;;;;21.08;50.01;102289.84;5011505;28;20030;-53
2023/06/01 08:24:11;;;;;;;2.20;1.70;;;;;;;21.08;50.61;102287.97;5010190;28;20037;-53
2023/06/01 08:26:37;;;;;;;2.33;2.13;;;;;;;21.08;50.38;102289.84;5014303;28;20475;-53
2023/06/01 08:29:03;;;;;;;1.90;1.80;;;;;;;21.09;49.97;102291.53;5011140;28;20465;-54
2023/06/01 08:31:28;;;;;;;2.65;1.90;;;;;;;21.08;50.46;102287.97;5010799;28;20460;-54
2023/06/01 08:33:55;;;;;;;1.90;1.75;;;;;;;21.07;50.36;102278.13;5009837;28;20034;-53
2023/06/01 08:36:21;;;;;;;1.90;1.60;;;;;;;21.07;50.30;102283.53;5010663;28;20403;-53
2023/06/01 08:38:48;;;;;;;4.03;2.05;;;;;;;21.08;50.04;102287.13;5010233;28;20066;-54
2023/06/01 08:41:41;;;;;;;2.50;2.00;;;;;;;21.12;50.29;102285.03;5010996;28;20050;-53
2023/06/01 08:44:10;;;;;;;2.40;1.90;;;;;;;21.09;49.94;102288.84;5007911;28;20065;-53
2023/06/01 08:46:36;;;;;;;2.72;1.73;;;;;;;21.08;50.06;102285.28;5012122;28;20435;-53
2023/06/01 08:49:01;;;;;;;2.15;1.95;;;;;;;21.09;50.37;102275.28;5013961;28;20541;-54
2023/06/01 08:51:28;;;;;;;2.63;1.90;;;;;;;21.08;50.01;102282.56;5009973;28;20033;-53
2023/06/01 08:53:57;;;;;;;2.30;1.77;;;;;;;21.07;50.06;102275.41;5010832;28;20037;-54
2023/06/01 08:56:23;;;;;;;2.00;1.90;;;;;;;21.08;50.04;102271.72;5010132;28;20566;-53
2023/06/01 08:58:50;;;;;;;3.72;2.17;;;;;;;21.07;50.04;102261.88;5015295;28;20034;-53
2023/06/01 09:01:21;;;;;;;1.88;1.77;;;;;;;21.07;50.35;102270.00;5013743;28;20376;-54
2023/06/01 09:03:51;;;;;;;2.30;2.10;;;;;;;21.09;50.33;102268.06;5013333;28;20041;-54
2023/06/01 09:06:17;;;;;;;2.17;1.80;;;;;;;21.08;50.19;102269.03;5014493;28;20121;-53
2023/06/01 09:08:43;;;;;;;3.35;2.20;;;;;;;21.08;50.40;102266.31;5005453;28;20113;-53
2023/06/01 09:11:09;;;;;;;2.95;2.50;;;;;;;21.08;50.29;102263.59;5009329;28;20084;-53
2023/06/01 09:13:37;;;;;;;2.20;2.00;;;;;;;21.08;50.08;102269.03;5010093;28;20042;-53
2023/06/01 09:16:02;;;;;;;2.60;2.05;;;;;;;21.08;50.00;102263.59;5009480;28;20037;-53
2023/06/01 09:18:28;;;;;;;3.03;2.45;;;;;;;21.09;50.27;102254.50;5010394;28;20038;-54
2023/06/01 09:20:56;;;;;;;3.17;1.95;;;;;;;21.09;49.91;102257.22;5009655;28;20512;-53
2023/06/01 09:23:28;;;;;;;2.90;1.70;;;;;;;21.09;50.27;102249.09;5011346;28;20030;-53
2023/06/01 09:26:10;;;;;;;2.20;2.00;;;;;;;21.11;50.25;102250.78;5007667;28;20389;-54
2023/06/01 09:28:52;;;;;;;1.90;1.75;;;;;;;21.12;50.09;102249.81;5009206;28;20037;-54
2023/06/01 09:31:40;;;;;;;3.20;2.00;;;;;;;21.12;50.33;102250.66;5010337;28;20045;-53
2023/06/01 09:34:06;;;;;;;2.30;2.10;;;;;;;21.11;50.06;102242.66;5008076;28;20036;-53
2023/06/01 09:36:33;;;;;;;3.25;2.10;;;;;;;21.10;50.30;102241.81;5008814;28;20461;-53
2023/06/01 09:39:10;;;;;;;2.53;2.20;;;;;;;21.10;50.17;102239.09;5009147;28;20125;-53
2023/06/01 09:41:49;;;;;;;4.75;2.13;;;;;;;21.11;49.81;102237.25;5010512;28;20400;-53
2023/06/01 09:44:22;;;;;;;3.65;2.03;;;;;;;21.11;49.99;102232.69;5006627;28;20030;-54
2023/06/01 09:46:48;;;;;;;2.30;2.10;;;;;;;21.10;49.95;102236.41;5010472;28;20467;-54
2023/06/01 09:49:25;;;;;;;2.63;2.38;;;;;;;21.09;49.78;102227.44;5009205;28;20033;-53
2023/06/01 09:52:08;;;;;;;3.28;2.20;;;;;;;21.11;50.22;102226.41;5015617;28;20395;-54
2023/06/01 09:54:37;;;;;;;2.10;1.92;;;;;;;21.11;50.26;102238.09;5012855;28;20026;-53
2023/06/01 09:57:04;;;;;;;2.30;2.10;;;;;;;21.09;50.37;102230.13;5008916;28;20515;-53
2023/06/01 09:59:38;;;;;;;2.95;1.80;;;;;;;21.11;50.15;102231.84;5006039;28;20038;-53
2023/06/01 10:02:04;;;;;;;3.53;2.47;;;;;;;21.11;49.87;102231.84;5009137;28;20029;-54
2023/06/01 10:04:30;;;;;;;2.97;2.03;;;;;;;21.11;49.86;102231.84;5014722;28;20480;-53
2023/06/01 10:06:57;;;;;;;2.33;2.13;;;;;;;21.10;50.18;102222.84;5009835;28;20037;-53
2023/06/01 10:09:26;;;;;;;3.15;2.17;;;;;;;21.10;50.25;102217.44;5008757;28;20069;-54
2023/06/01 10:11:55;;;;;;;3.67;2.30;;;;;;;21.11;49.86;102221.00;5010020;28;20445;-53
2023/06/01 10:14:23;;;;;;;3.03;2.35;;;;;;;21.09;50.37;102224.72;5009028;28;20030;-53
2023/06/01 10:16:53;;;;;;;3.15;2.17;;;;;;;21.11;49.77;102226.41;5007325;28;20034;-53
2023/06/01 10:19:20;;;;;;;2.45;2.25;;;;;;;21.11;50.05;102221.84;5009345;28;20034;-53
2023/06/01 10:21:46;;;;;;;3.13;1.90;;;;;;;21.12;50.27;102222.72;5011465;28;20041;-54
2023/06/01 10:24:14;;;;;;;3.20;2.40;;;;;;;21.11;50.28;102216.44;5009075;28;20076;-53
2023/06/01 10:27:20;;;;;;;3.67;2.10;;;;;;;21.14;50.29;102209.91;5012201;28;20031;-53
2023/06/01 10:29:46;;;;;;;4.00;2.53;;;;;;;21.13;49.88;102213.59;4994242;28;20041;-53
2023/06/01 10:32:40;;;;;;;2.42;2.05;;;;;;;21.17;50.43;102215.03;5008594;28;20037;-53
2023/06/01 10:35:06;;;;;;;1.75;1.65;;;;;;;21.13;50.04;102217.16;5004989;28;20034;-53
2023/06/01 10:37:32;;;;;;;2.53;1.77;;;;;;;21.14;49.99;102220.75;5008875;28;20376;-53
2023/06/01 10:40:16;;;;;;;2.08;1.90;;;;;;;21.16;50.02;102222.31;5008203;28;20056;-53
2023/06/01 10:42:42;;;;;;;3.05;1.90;;;;;;;21.15;49.94;102211.59;5013831;28;20124;-54
2023/06/01 10:45:28;;;;;;;2.30;1.90;;;;;;;21.14;50.10;102215.31;5007333;28;20108;-54
2023/06/01 10:47:53;;;;;;;2.58;2.10;;;;;;;21.15;50.36;102209.78;5008245;28;20029;-53
2023/06/01 10:50:18;;;;;;;2.65;2.35;;;;;;;21.15;50.36;102209.78;5008362;28;20029;-53
2023/06/01 10:52:44;;;;;;;3.35;2.30;;;;;;;21.15;50.05;102215.19;5008550;28;20034;-53
2023/06/01 10:55:09;;;;;;;2.88;2.33;;;;;;;21.17;50.38;102217.75;5022973;28;20395;-53
2023/06/01 10:57:36;;;;;;;2.55;2.10;;;;;;;21.16;50.40;102210.63;5013994;28;20033;-53
2023/06/01 11:00:20;;;;;;;2.28;2.08;;;;;;;21.19;50.36;102208.50;5011213;28;20030;-53
2023/06/01 11:03:04;;;;;;;2.08;1.95;;;;;;;21.19;50.46;102204.94;5010665;28;20392;-54
2023/06/01 11:05:33;;;;;;;3.03;2.15;;;;;;;21.18;50.36;102204.06;5008354;28;20042;-53
2023/06/01 11:07:59;;;;;;;2.33;1.92;;;;;;;21.18;50.11;102189.69;5007579;28;20173;-53
2023/06/01 11:10:46;;;;;;;2.17;1.77;;;;;;;21.21;50.14;102192.09;5007006;28;20536;-53
2023/06/01 11:13:17;;;;;;;2.60;2.22;;;;;;;21.19;50.19;102183.25;5007731;28;20037;-53
2023/06/01 11:16:07;;;;;;;2.50;2.30;;;;;;;21.21;50.48;102182.16;5007753;28;20049;-53
2023/06/01 11:19:00;;;;;;;3.08;1.95;;;;;;;21.22;50.59;102183.84;5007892;28;20088;-53
2023/06/01 11:21:25;;;;;;;2.85;2.20;;;;;;;21.21;50.48;102178.56;5004852;28;20018;-53
2023/06/01 11:23:52;;;;;;;2.50;2.05;;;;;;;21.20;50.39;102177.72;5006591;28;20052;-53
2023/06/01 11:26:19;;;;;;;2.65;2.05;;;;;;;21.21;50.34;102178.56;5010448;28;20030;-53
2023/06/01 11:28:46;;;;;;;3.05;2.15;;;;;;;21.21;50.41;102183.97;5007540;28;20030;-54